Impacts METAR Board INFO
IDs:

KPDX - Portland Intl Arpt, OR, US

Updated at: 1404 UTC 24 Feb 2018
Potential Impact None Slight Moderate High
Time24/02Z 24/03Z 24/04Z 24/05Z 24/06Z 24/07Z 24/08Z 24/09Z 24/10Z 24/11Z 24/12Z 24/13Z 24/14Z
VIS10 9 9 9 9 9 10 10 10 10 10 10 10
CIG32 37 43 25 22 60 40 31 39 12 37 20 34
CoverOVCOVCOVCOVCOVCOVCOVCOVCOVCOVCOVCBKNBKN
FltCatVFRVFRVFRMVFRMVFRVFRVFRVFRVFRMVFRVFRMVFRVFR
WX---SN-SN-SN-SN---------RA-RA-RA--
WDir2102001902002002102002102102202000260
WSpd11 17 12 9 12 16 16 18 13 7 8 0 9
WGst17 23 -- -- -- -- 26 25 -- -- -- -- --
Raw hourly METARs
KPDX 240153Z 21011G17KT 10SM BKN032 OVC045 04/M03 A3036 RMK AO2 SLP279 T00391028
KPDX 240253Z 20017G23KT 9SM -SN FEW030 OVC037 04/M03 A3035 RMK AO2 SNB46 SLP277 P0000 60000 T00391028 56017
KPDX 240353Z 19012KT 9SM -SN FEW030 BKN043 OVC060 03/M02 A3033 RMK AO2 SLP270 P0000 T00331022
KPDX 240453Z 20009KT 9SM -SN BKN025 BKN040 OVC055 03/M02 A3030 RMK AO2 SNE14B42 SLP261 P0000 T00331017
KPDX 240553Z 20012KT 9SM -SN BKN022 OVC032 03/M01 A3027 RMK AO2 SLP251 P0000 60000 T00331011 10039 20033 58026
KPDX 240653Z 21016KT 9SM SCT023 BKN060 OVC080 03/M01 A3022 RMK AO2 SNE49 SLP232 P0000 T00331006
KPDX 240753Z 20016G26KT 10SM FEW025 BKN040 OVC047 04/00 A3017 RMK AO2 PK WND 22028/0713 SLP216 T00390000 400391044
KPDX 240853Z 21018G25KT 10SM BKN031 OVC041 04/01 A3015 RMK AO2 SLP208 60000 T00390006 56043
KPDX 240953Z 21013KT 10SM FEW016 SCT029 OVC039 03/01 A3013 RMK AO2 PK WND 21027/0900 RAB03E49 SLP204 P0000 T00330011
KPDX 241053Z 22007KT 10SM -RA BKN012 OVC022 03/01 A3010 RMK AO2 RAB02 SLP191 P0001 T00280011
KPDX 241153Z 20008KT 10SM -RA SCT011 BKN037 OVC047 03/02 A3005 RMK AO2 SLP177 RAE09B26 P0000 60001 70001 T00330017 10039 20028 58027
KPDX 241253Z 00000KT 10SM -RA SCT014 BKN020 BKN060 04/02 A3004 RMK AO2 SLP173 P0000 T00390022
KPDX 241353Z 26009KT 10SM FEW016 SCT028 BKN034 04/02 A3005 RMK AO2 RAE49 SLP176 P0001 T00390022